This is the latest recevied weather packets stored in our database for station/object EA5IAU-13. If no packets are shown the sender has not sent any weather packets the latest 10 day(s).
| Time | Temp. | Humidity | Pressure | Rain* | Wind** | Luminosity | Snow |
|---|---|---|---|---|---|---|---|
| 1787743746 | 88° F | 54% | 759.1 mmHg | 0 in | - | - | - |
| 1787743712 | 88° F | 54% | 759.1 mmHg | 0 in | - | - | - |
| 1787743540 | 88° F | 54% | 759.1 mmHg | 0 in | - | - | - |
| 1787743486 | 88° F | 54% | 759.1 mmHg | 0 in | - | - | - |
| 1787743295 | 88° F | 54% | 759.1 mmHg | 0 in | - | - | - |
| 1787740367 | 88° F | 51% | 759.1 mmHg | 0 in | - | - | - |
| 1787740298 | 88° F | 52% | 759.1 mmHg | 0 in | - | - | - |
| 1787739345 | 86° F | 57% | 759.4 mmHg | 0 in | - | - | - |
| 1787735248 | 85° F | 60% | 759.5 mmHg | 0 in | - | - | - |
| 1787735191 | 85° F | 61% | 759.6 mmHg | 0 in | - | - | - |
| 1787734506 | 84° F | 62% | 759.7 mmHg | 0 in | - | - | - |
| 1787734306 | 83° F | 62% | 759.7 mmHg | 0 in | - | - | - |
| 1787732530 | 92° F | 36% | 758.3 mmHg | 0 in | - | - | - |
| 1787732498 | 92° F | 36% | 758.3 mmHg | 0 in | - | - | - |
| 1787732383 | 92° F | 36% | 758.3 mmHg | 0 in | - | - | - |
| 1787732248 | 92° F | 36% | 758.3 mmHg | 0 in | - | - | - |
| 1787732180 | 92° F | 36% | 758.3 mmHg | 0 in | - | - | - |
| 1787731867 | 92° F | 36% | 758.3 mmHg | 0 in | - | - | - |
| 1787731215 | 92° F | 36% | 758.3 mmHg | 0 in | - | - | - |
| 1787730756 | 92° F | 36% | 758.3 mmHg | 0 in | - | - | - |
| 1787728155 | 92° F | 36% | 758.3 mmHg | 0 in | - | - | - |
| 1787728070 | 92° F | 36% | 758.3 mmHg | 0 in | - | - | - |
| 1787672062 | 92° F | 36% | 758.3 mmHg | 0 in | - | - | - |
| 1787659320 | 87° F | 46% | 758.9 mmHg | 0 in | - | - | - |
| 1787659319 | 85° F | 36% | 758.6 mmHg | 0 in | - | - | - |
* Rain latest hour (hover to see other rain measurements)
** Current wind speed in m/s (hover to see current wind gust speed)